createdAt,value
2023-01-20T00:02:04.970Z,66.30
2023-01-20T00:04:37.887Z,66.33
2023-01-20T00:07:10.847Z,66.38
2023-01-20T00:09:43.747Z,66.39
2023-01-20T00:12:16.619Z,66.42
2023-01-20T00:14:49.473Z,66.38
2023-01-20T00:17:23.763Z,66.65
2023-01-20T00:19:56.597Z,66.57
2023-01-20T00:22:29.483Z,66.47
2023-01-20T00:25:02.359Z,66.33
2023-01-20T00:27:35.261Z,66.51
2023-01-20T00:30:09.640Z,66.47
2023-01-20T00:32:44.988Z,66.56
2023-01-20T00:35:17.909Z,66.52
2023-01-20T00:37:50.858Z,66.53
2023-01-20T00:40:23.723Z,66.46
2023-01-20T00:42:56.641Z,66.46
2023-01-20T00:45:29.562Z,66.30
2023-01-20T00:48:04.166Z,66.39
2023-01-20T00:50:36.999Z,66.34
2023-01-20T00:53:10.015Z,66.25
2023-01-20T00:55:42.885Z,66.35
2023-01-20T00:58:16.776Z,66.44
2023-01-20T01:00:50.141Z,66.43
2023-01-20T01:03:24.472Z,66.39
2023-01-20T01:06:07.781Z,66.22
2023-01-20T01:08:41.042Z,66.25
2023-01-20T01:11:14.907Z,66.19
2023-01-20T01:13:47.796Z,66.25
2023-01-20T01:16:20.626Z,66.31
2023-01-20T01:18:56.215Z,66.41
2023-01-20T01:21:29.159Z,66.26
2023-01-20T01:24:02.036Z,66.35
2023-01-20T01:26:34.930Z,66.20
2023-01-20T01:29:07.894Z,66.22
2023-01-20T01:31:40.801Z,66.31
2023-01-20T01:34:15.334Z,66.08
2023-01-20T01:36:48.180Z,66.23
2023-01-20T01:39:21.094Z,66.12
2023-01-20T01:41:53.980Z,66.22
2023-01-20T01:44:28.520Z,66.64
2023-01-20T01:47:01.365Z,66.20
2023-01-20T01:49:35.932Z,66.27
2023-01-20T01:52:10.891Z,66.17
2023-01-20T01:54:45.949Z,66.20
2023-01-20T01:57:18.914Z,66.08
2023-01-20T01:59:52.735Z,66.12
2023-01-20T02:02:26.064Z,66.04
2023-01-20T02:05:00.757Z,66.11
2023-01-20T02:07:35.035Z,66.15
2023-01-20T02:10:08.770Z,66.16
2023-01-20T02:12:44.363Z,66.32
2023-01-20T02:15:18.534Z,65.89
2023-01-20T02:18:11.864Z,66.51
2023-01-20T02:21:05.592Z,66.48
2023-01-20T02:23:59.890Z,66.72
2023-01-20T02:26:58.415Z,66.79
2023-01-20T02:30:08.281Z,66.90
2023-01-20T02:32:51.362Z,67.00
2023-01-20T02:35:33.764Z,67.15
2023-01-20T02:38:15.412Z,67.22
2023-01-20T02:40:51.962Z,67.12
2023-01-20T02:43:31.460Z,67.24
2023-01-20T02:46:11.080Z,67.30
2023-01-20T02:48:52.309Z,67.78
2023-01-20T02:51:28.210Z,67.80
2023-01-20T02:54:06.419Z,68.07
2023-01-20T02:56:40.325Z,68.49
2023-01-20T02:59:16.874Z,68.33
2023-01-20T03:01:54.688Z,68.33
2023-01-20T03:04:34.845Z,68.34
2023-01-20T03:07:10.780Z,68.36
2023-01-20T03:09:48.749Z,68.21
2023-01-20T03:12:28.168Z,67.92
2023-01-20T03:15:01.204Z,67.72
2023-01-20T03:17:34.889Z,67.86
2023-01-20T03:20:10.672Z,67.57
2023-01-20T03:22:43.702Z,67.62
2023-01-20T03:25:18.895Z,67.38
2023-01-20T03:27:51.763Z,67.30
2023-01-20T03:30:25.704Z,67.33
2023-01-20T03:32:58.886Z,67.30
2023-01-20T03:35:35.445Z,67.14
2023-01-20T03:38:10.121Z,67.19
2023-01-20T03:40:50.043Z,67.00
2023-01-20T03:43:35.170Z,67.02
2023-01-20T03:46:15.630Z,66.95
2023-01-20T03:48:53.830Z,67.11
2023-01-20T03:51:36.105Z,66.96
2023-01-20T03:54:12.273Z,66.74
2023-01-20T03:56:53.033Z,66.50
2023-01-20T03:59:26.737Z,66.80
2023-01-20T04:02:04.314Z,66.73
2023-01-20T04:04:40.479Z,66.44
2023-01-20T04:07:19.852Z,66.29
2023-01-20T04:09:55.641Z,66.70
2023-01-20T04:12:28.647Z,66.78
2023-01-20T04:15:02.111Z,66.79
2023-01-20T04:17:35.455Z,66.86
2023-01-20T04:20:11.478Z,67.26
2023-01-20T04:22:52.018Z,67.23
2023-01-20T04:25:27.671Z,67.41
2023-01-20T04:28:00.557Z,67.59
2023-01-20T04:30:33.497Z,67.51
2023-01-20T04:33:06.471Z,67.90
2023-01-20T04:35:39.303Z,68.17
2023-01-20T04:38:13.516Z,67.88
2023-01-20T04:40:46.361Z,68.10
2023-01-20T04:43:19.215Z,68.08
2023-01-20T04:45:52.247Z,68.24
2023-01-20T04:48:25.222Z,68.38
2023-01-20T04:50:58.145Z,68.19
2023-01-20T04:53:32.402Z,68.58
2023-01-20T04:56:05.804Z,68.18
2023-01-20T04:58:38.744Z,68.12
2023-01-20T05:01:11.750Z,68.30
2023-01-20T05:03:44.803Z,68.56
2023-01-20T05:06:18.915Z,68.35
2023-01-20T05:08:53.240Z,68.52
2023-01-20T05:11:26.208Z,68.21
2023-01-20T05:13:59.055Z,68.63
2023-01-20T05:16:32.243Z,68.20
2023-01-20T05:19:05.293Z,68.41
2023-01-20T05:21:38.221Z,68.31
2023-01-20T05:24:12.904Z,68.34
2023-01-20T05:26:45.853Z,68.75
2023-01-20T05:29:18.727Z,68.45
2023-01-20T05:31:51.556Z,68.86
2023-01-20T05:34:24.450Z,68.53
2023-01-20T05:36:57.327Z,68.91
2023-01-20T05:39:31.726Z,68.91
2023-01-20T05:42:04.979Z,68.83
2023-01-20T05:44:37.824Z,68.99
2023-01-20T05:47:11.048Z,68.91
2023-01-20T05:49:43.965Z,69.01
2023-01-20T05:52:16.930Z,68.51
2023-01-20T05:54:51.172Z,68.86
2023-01-20T05:57:25.362Z,68.78
2023-01-20T05:59:58.244Z,68.65
2023-01-20T06:02:31.813Z,68.73
2023-01-20T06:05:05.143Z,68.73
2023-01-20T06:07:38.010Z,68.72
2023-01-20T06:10:13.479Z,68.31
2023-01-20T06:12:53.173Z,68.75
2023-01-20T06:15:26.488Z,68.94
2023-01-20T06:17:59.350Z,68.52
2023-01-20T06:20:32.254Z,68.81
2023-01-20T06:23:05.128Z,68.42
2023-01-20T06:25:39.794Z,68.52
2023-01-20T06:28:12.628Z,68.54
2023-01-20T06:30:45.516Z,68.49
2023-01-20T06:33:18.400Z,68.67
2023-01-20T06:35:54.590Z,68.44
2023-01-20T06:38:29.870Z,68.55
2023-01-20T06:41:06.464Z,68.44
2023-01-20T06:43:41.962Z,68.20
2023-01-20T06:46:17.259Z,68.45
2023-01-20T06:48:50.141Z,68.64
2023-01-20T06:51:23.431Z,68.58
2023-01-20T06:53:56.401Z,68.84
2023-01-20T06:56:30.714Z,68.32
2023-01-20T06:59:03.678Z,68.43
2023-01-20T07:01:36.560Z,68.58
2023-01-20T07:04:13.595Z,68.57
2023-01-20T07:06:46.586Z,68.25
2023-01-20T07:09:19.547Z,68.77
2023-01-20T07:11:53.873Z,68.64
2023-01-20T07:14:26.723Z,68.40
2023-01-20T07:16:59.609Z,68.60
2023-01-20T07:19:32.481Z,68.28
2023-01-20T07:22:05.359Z,68.44
2023-01-20T07:24:38.248Z,68.33
2023-01-20T07:27:12.760Z,68.34
2023-01-20T07:29:45.625Z,68.23
2023-01-20T07:32:18.535Z,68.06
2023-01-20T07:34:51.751Z,67.72
2023-01-20T07:37:24.717Z,67.76
2023-01-20T07:39:57.747Z,68.01
2023-01-20T07:42:31.997Z,67.84
2023-01-20T07:45:05.794Z,68.15
2023-01-20T07:47:38.688Z,68.15
2023-01-20T07:50:12.364Z,68.62
2023-01-20T07:52:45.511Z,68.57
2023-01-20T07:55:18.346Z,68.01
2023-01-20T07:57:52.731Z,68.30
2023-01-20T08:00:25.995Z,68.50
2023-01-20T08:02:58.888Z,68.51
2023-01-20T08:05:33.347Z,68.19
2023-01-20T08:08:06.626Z,68.25
2023-01-20T08:10:39.520Z,68.62
2023-01-20T08:13:14.254Z,68.15
2023-01-20T08:15:47.119Z,68.30
2023-01-20T08:18:20.025Z,68.61
2023-01-20T08:20:53.222Z,68.30
2023-01-20T08:23:26.071Z,68.57
2023-01-20T08:25:59.964Z,68.77
2023-01-20T08:28:37.536Z,68.60
2023-01-20T08:31:12.794Z,68.22
2023-01-20T08:33:46.735Z,68.15
2023-01-20T08:36:21.529Z,68.23
2023-01-20T08:38:56.225Z,68.38
2023-01-20T08:41:31.696Z,68.50
2023-01-20T08:44:10.340Z,68.46
2023-01-20T08:46:44.458Z,68.59
2023-01-20T08:49:18.491Z,68.40
2023-01-20T08:51:54.009Z,68.43
2023-01-20T08:54:29.404Z,68.58
2023-01-20T08:57:02.316Z,68.41
2023-01-20T08:59:36.749Z,68.08
2023-01-20T09:02:10.885Z,68.26
2023-01-20T09:04:43.787Z,68.32
2023-01-20T09:07:17.216Z,68.60
2023-01-20T09:09:50.267Z,68.43
2023-01-20T09:12:23.326Z,68.37
2023-01-20T09:14:57.567Z,68.39
2023-01-20T09:17:30.481Z,68.34
2023-01-20T09:20:03.662Z,68.29
2023-01-20T09:22:36.584Z,68.35
2023-01-20T09:25:10.423Z,67.84
2023-01-20T09:27:43.291Z,67.84
2023-01-20T09:30:18.201Z,67.76
2023-01-20T09:32:53.202Z,67.62
2023-01-20T09:35:26.606Z,67.79
2023-01-20T09:38:22.469Z,67.84
2023-01-20T09:41:22.434Z,67.46
2023-01-20T09:44:03.216Z,67.28
2023-01-20T09:47:12.755Z,66.72
2023-01-20T09:50:24.230Z,66.92
2023-01-20T09:53:06.177Z,66.91
2023-01-20T09:55:44.973Z,66.34
2023-01-20T09:58:25.603Z,66.52
2023-01-20T10:01:09.993Z,66.28
2023-01-20T10:03:50.019Z,66.20
2023-01-20T10:06:27.565Z,66.04
2023-01-20T10:09:06.172Z,66.62
2023-01-20T10:11:44.388Z,65.84
2023-01-20T10:14:24.260Z,66.17
2023-01-20T10:17:05.588Z,66.69
2023-01-20T10:19:46.679Z,66.88
2023-01-20T10:22:27.335Z,66.99
2023-01-20T10:25:07.199Z,67.12
2023-01-20T10:27:46.569Z,67.45
2023-01-20T10:30:22.749Z,67.62
2023-01-20T10:33:01.903Z,67.79
2023-01-20T10:35:40.376Z,67.86
2023-01-20T10:38:22.295Z,67.91
2023-01-20T10:40:58.377Z,68.87
2023-01-20T10:43:32.140Z,68.30
2023-01-20T10:46:20.696Z,67.59
2023-01-20T10:49:16.285Z,67.70
2023-01-20T10:52:05.935Z,67.54
2023-01-20T10:54:47.533Z,67.92
2023-01-20T10:57:20.710Z,67.99
2023-01-20T10:59:57.314Z,67.70
2023-01-20T11:02:32.104Z,67.61
2023-01-20T11:05:17.253Z,67.18
2023-01-20T11:07:55.135Z,67.60
2023-01-20T11:10:30.318Z,67.88
2023-01-20T11:13:03.646Z,67.68
2023-01-20T11:15:39.085Z,67.29
2023-01-20T11:18:29.886Z,67.39
2023-01-20T11:21:05.808Z,67.24
2023-01-20T11:23:42.001Z,66.81
2023-01-20T11:26:21.141Z,66.79
2023-01-20T11:28:56.857Z,66.83
2023-01-20T11:31:39.478Z,66.01
2023-01-20T11:34:31.427Z,66.51
2023-01-20T11:37:18.305Z,66.63
2023-01-20T11:40:17.031Z,66.59
2023-01-20T11:42:51.702Z,67.09
2023-01-20T11:45:32.647Z,66.37
2023-01-20T11:48:16.941Z,66.81
2023-01-20T11:50:54.482Z,66.76
2023-01-20T11:53:31.623Z,67.36
2023-01-20T11:56:18.077Z,66.46
2023-01-20T11:58:55.453Z,67.17
2023-01-20T12:01:30.430Z,67.13
2023-01-20T12:04:24.399Z,66.66
2023-01-20T12:07:01.666Z,66.00
2023-01-20T12:09:38.499Z,66.14
2023-01-20T12:12:21.970Z,66.21
2023-01-20T12:15:01.506Z,66.60
2023-01-20T12:17:42.469Z,66.09
2023-01-20T12:20:23.696Z,65.13
2023-01-20T12:23:08.886Z,65.31
2023-01-20T12:25:50.137Z,65.49
2023-01-20T12:28:29.540Z,65.11
2023-01-20T12:31:04.585Z,65.23
2023-01-20T12:33:40.177Z,64.69
2023-01-20T12:36:50.408Z,64.82
2023-01-20T12:39:59.245Z,63.94
2023-01-20T12:43:10.823Z,63.81
2023-01-20T12:46:06.150Z,63.62
2023-01-20T12:48:50.712Z,64.02
2023-01-20T12:51:37.092Z,63.42
2023-01-20T12:54:48.279Z,63.26
2023-01-20T12:57:37.494Z,63.71
2023-01-20T13:00:33.236Z,63.81
2023-01-20T13:03:29.447Z,63.31
2023-01-20T13:06:33.332Z,64.09
2023-01-20T13:09:19.692Z,64.25
2023-01-20T13:12:06.446Z,64.44
2023-01-20T13:14:43.888Z,65.09
2023-01-20T13:17:29.160Z,64.74
2023-01-20T13:20:06.060Z,65.09
2023-01-20T13:22:39.293Z,65.54
2023-01-20T13:25:17.195Z,65.32
2023-01-20T13:27:54.428Z,65.80
2023-01-20T13:30:43.051Z,66.03
2023-01-20T13:33:19.763Z,66.14
2023-01-20T13:35:54.501Z,65.68
2023-01-20T13:38:30.923Z,66.49
2023-01-20T13:41:06.158Z,66.39
2023-01-20T13:43:50.392Z,65.57
2023-01-20T13:46:49.327Z,65.67
2023-01-20T13:49:52.132Z,66.15
2023-01-20T13:53:17.164Z,66.07
2023-01-20T13:55:55.852Z,66.07
2023-01-20T13:58:30.249Z,65.99
2023-01-20T14:01:04.896Z,66.72
2023-01-20T14:03:39.941Z,66.76
2023-01-20T14:06:23.714Z,66.21
2023-01-20T14:08:58.150Z,66.75
2023-01-20T14:11:31.439Z,67.13
2023-01-20T14:14:06.516Z,66.28
2023-01-20T14:16:43.448Z,66.25
2023-01-20T14:19:23.390Z,66.34
2023-01-20T14:21:58.142Z,66.13
2023-01-20T14:24:37.261Z,66.60
2023-01-20T14:27:15.217Z,66.97
2023-01-20T14:29:49.975Z,66.94
2023-01-20T14:32:26.307Z,67.02
2023-01-20T14:34:59.688Z,66.45
2023-01-20T14:37:35.914Z,66.13
2023-01-20T14:40:24.025Z,66.22
2023-01-20T14:42:57.850Z,65.74
2023-01-20T14:45:33.351Z,65.61
2023-01-20T14:48:07.192Z,66.12
2023-01-20T14:50:41.317Z,66.33
2023-01-20T14:53:15.282Z,66.36
2023-01-20T14:56:02.000Z,65.41
2023-01-20T14:58:36.438Z,65.83
2023-01-20T15:01:22.116Z,65.37
2023-01-20T15:03:59.789Z,65.30
2023-01-20T15:06:32.790Z,66.31
2023-01-20T15:09:25.952Z,65.52
2023-01-20T15:12:36.175Z,64.96
2023-01-20T15:15:28.089Z,64.83
2023-01-20T15:18:19.990Z,65.41
2023-01-20T15:21:03.894Z,66.33
2023-01-20T15:23:45.899Z,66.18
2023-01-20T15:26:27.005Z,65.52
2023-01-20T15:29:01.261Z,65.78
2023-01-20T15:31:34.151Z,66.29
2023-01-20T15:34:07.169Z,65.91
2023-01-20T15:36:40.253Z,65.87
2023-01-20T15:39:13.462Z,65.54
2023-01-20T15:41:47.607Z,65.66
2023-01-20T15:44:22.088Z,65.84
2023-01-20T15:46:58.045Z,65.68
2023-01-20T15:49:30.912Z,66.08
2023-01-20T15:52:03.811Z,65.75
2023-01-20T15:54:36.713Z,65.65
2023-01-20T15:57:13.942Z,65.70
2023-01-20T15:59:50.179Z,65.53
2023-01-20T16:02:26.982Z,65.51
2023-01-20T16:05:00.034Z,65.62
2023-01-20T16:07:32.948Z,65.66
2023-01-20T16:10:06.329Z,65.74
2023-01-20T16:12:39.183Z,65.52
2023-01-20T16:15:17.958Z,65.14
2023-01-20T16:17:52.795Z,65.56
2023-01-20T16:20:26.579Z,65.24
2023-01-20T16:22:59.494Z,65.13
2023-01-20T16:25:32.863Z,64.83
2023-01-20T16:28:13.815Z,64.45
2023-01-20T16:30:49.053Z,64.36
2023-01-20T16:33:24.094Z,64.44
2023-01-20T16:35:57.639Z,64.40
2023-01-20T16:38:30.597Z,64.75
2023-01-20T16:41:05.959Z,64.53
2023-01-20T16:43:41.008Z,64.16
2023-01-20T16:46:16.711Z,64.23
2023-01-20T16:48:50.072Z,64.48
2023-01-20T16:51:26.269Z,64.27
2023-01-20T16:54:00.139Z,64.38
2023-01-20T16:56:33.953Z,64.40
2023-01-20T16:59:08.150Z,64.67
2023-01-20T17:01:42.545Z,64.82
2023-01-20T17:04:15.397Z,65.49
2023-01-20T17:06:48.329Z,66.15
2023-01-20T17:09:21.165Z,66.49
2023-01-20T17:11:54.083Z,66.67
2023-01-20T17:14:27.084Z,66.68
2023-01-20T17:17:01.432Z,66.95
2023-01-20T17:19:34.576Z,66.94
2023-01-20T17:22:07.544Z,66.61
2023-01-20T17:24:40.460Z,66.95
2023-01-20T17:27:13.489Z,66.83
2023-01-20T17:29:46.350Z,66.79
2023-01-20T17:32:20.989Z,66.54
2023-01-20T17:34:53.923Z,66.75
2023-01-20T17:37:26.804Z,66.69
2023-01-20T17:40:00.447Z,66.63
2023-01-20T17:42:33.351Z,66.78
2023-01-20T17:45:07.553Z,66.56
2023-01-20T17:47:41.837Z,67.07
2023-01-20T17:50:15.384Z,66.84
2023-01-20T17:52:48.712Z,66.95
2023-01-20T17:55:21.786Z,66.84
2023-01-20T17:57:54.714Z,67.01
2023-01-20T18:00:27.585Z,67.21
2023-01-20T18:03:01.827Z,67.15
2023-01-20T18:05:35.865Z,68.00
2023-01-20T18:08:08.744Z,67.80
2023-01-20T18:10:41.783Z,67.92
2023-01-20T18:13:14.730Z,68.11
2023-01-20T18:15:47.600Z,68.73
2023-01-20T18:18:21.800Z,68.65
2023-01-20T18:20:54.684Z,68.91
2023-01-20T18:23:27.631Z,68.84
2023-01-20T18:26:00.487Z,68.68
2023-01-20T18:28:33.566Z,68.85
2023-01-20T18:31:09.139Z,68.49
2023-01-20T18:33:45.356Z,68.36
2023-01-20T18:36:23.526Z,67.91
2023-01-20T18:38:59.182Z,67.58
2023-01-20T18:41:36.409Z,67.67
2023-01-20T18:44:10.910Z,66.88
2023-01-20T18:46:43.932Z,67.03
2023-01-20T18:49:19.130Z,66.58
2023-01-20T18:51:52.023Z,66.86
2023-01-20T18:54:25.932Z,66.62
2023-01-20T18:56:58.823Z,66.63
2023-01-20T18:59:31.868Z,66.45
2023-01-20T19:02:04.890Z,66.67
2023-01-20T19:04:39.359Z,66.49
2023-01-20T19:07:12.260Z,66.77
2023-01-20T19:09:45.252Z,66.69
2023-01-20T19:12:18.184Z,66.17
2023-01-20T19:14:52.647Z,66.45
2023-01-20T19:17:26.819Z,66.27
2023-01-20T19:20:02.069Z,66.02
2023-01-20T19:22:35.079Z,66.02
2023-01-20T19:25:08.909Z,66.62
2023-01-20T19:27:42.171Z,66.27
2023-01-20T19:30:15.621Z,66.76
2023-01-20T19:32:48.664Z,66.64
2023-01-20T19:35:22.970Z,66.65
2023-01-20T19:37:56.349Z,66.32
2023-01-20T19:40:29.447Z,66.66
2023-01-20T19:43:02.669Z,66.25
2023-01-20T19:45:45.294Z,66.28
2023-01-20T19:48:18.768Z,66.24
2023-01-20T19:50:53.149Z,66.59
2023-01-20T19:53:26.034Z,66.49
2023-01-20T19:56:03.073Z,66.42
2023-01-20T19:58:36.266Z,66.29
2023-01-20T20:01:09.607Z,66.16
2023-01-20T20:03:43.925Z,66.58
2023-01-20T20:06:26.980Z,66.12
2023-01-20T20:09:02.721Z,66.09
2023-01-20T20:11:36.416Z,66.34
2023-01-20T20:14:12.127Z,66.46
2023-01-20T20:16:45.295Z,66.27
2023-01-20T20:19:20.068Z,66.40
2023-01-20T20:21:56.338Z,66.33
2023-01-20T20:24:29.331Z,66.30
2023-01-20T20:27:02.255Z,66.07
2023-01-20T20:29:35.171Z,66.18
2023-01-20T20:32:09.655Z,66.58
2023-01-20T20:34:42.716Z,66.06
2023-01-20T20:37:16.988Z,66.28
2023-01-20T20:39:49.843Z,66.53
2023-01-20T20:42:22.756Z,66.54
2023-01-20T20:44:55.644Z,66.27
2023-01-20T20:47:28.622Z,66.27
2023-01-20T20:50:01.541Z,66.44
2023-01-20T20:52:36.165Z,66.32
2023-01-20T20:55:12.194Z,66.52
2023-01-20T20:57:45.165Z,66.57
2023-01-20T21:00:20.948Z,65.92
2023-01-20T21:02:53.907Z,66.15
2023-01-20T21:05:26.887Z,65.93
2023-01-20T21:08:01.483Z,66.25
2023-01-20T21:10:34.401Z,66.42
2023-01-20T21:13:08.326Z,66.38
2023-01-20T21:15:41.414Z,66.32
2023-01-20T21:18:14.315Z,66.15
2023-01-20T21:20:47.285Z,66.32
2023-01-20T21:23:21.611Z,66.47
2023-01-20T21:25:55.174Z,66.50
2023-01-20T21:28:28.057Z,66.43
2023-01-20T21:31:01.092Z,66.54
2023-01-20T21:33:34.186Z,65.96
2023-01-20T21:36:09.695Z,66.35
2023-01-20T21:38:46.363Z,66.15
2023-01-20T21:41:20.355Z,66.31
2023-01-20T21:44:12.250Z,65.99
2023-01-20T21:46:45.139Z,66.16
2023-01-20T21:49:35.811Z,65.81
2023-01-20T21:52:38.291Z,66.01
2023-01-20T21:55:15.976Z,65.80
2023-01-20T21:57:51.351Z,65.90
2023-01-20T22:00:24.866Z,65.92
2023-01-20T22:02:57.769Z,66.03
2023-01-20T22:05:30.971Z,65.73
2023-01-20T22:08:03.828Z,65.91
2023-01-20T22:10:38.175Z,65.61
2023-01-20T22:13:11.146Z,65.64
2023-01-20T22:15:44.017Z,65.74
2023-01-20T22:18:17.158Z,65.50
2023-01-20T22:20:50.012Z,65.92
2023-01-20T22:23:22.837Z,65.60
2023-01-20T22:25:57.147Z,65.43
2023-01-20T22:28:30.869Z,65.14
2023-01-20T22:31:06.366Z,65.25
2023-01-20T22:33:39.652Z,65.31
2023-01-20T22:36:12.564Z,65.33
2023-01-20T22:38:45.981Z,65.49
2023-01-20T22:41:21.981Z,65.80
2023-01-20T22:43:55.773Z,65.21
2023-01-20T22:46:29.820Z,65.11
2023-01-20T22:49:02.737Z,64.50
2023-01-20T22:51:35.637Z,64.33
2023-01-20T22:54:11.763Z,64.15
2023-01-20T22:56:46.105Z,64.12
2023-01-20T22:59:18.970Z,63.88
2023-01-20T23:01:51.910Z,64.20
2023-01-20T23:04:24.753Z,64.43
2023-01-20T23:06:57.703Z,64.06
2023-01-20T23:09:30.700Z,64.22
2023-01-20T23:12:05.742Z,64.50
2023-01-20T23:14:52.820Z,64.32
2023-01-20T23:17:25.735Z,64.43
2023-01-20T23:19:58.967Z,64.63
2023-01-20T23:22:31.826Z,64.52
2023-01-20T23:25:04.995Z,64.59
2023-01-20T23:27:39.722Z,64.58
2023-01-20T23:30:13.137Z,64.20
2023-01-20T23:32:46.183Z,64.86
2023-01-20T23:35:19.007Z,64.44
2023-01-20T23:37:52.031Z,64.33
2023-01-20T23:40:26.108Z,64.60
2023-01-20T23:43:00.526Z,64.90
2023-01-20T23:45:33.442Z,64.66
2023-01-20T23:48:06.909Z,64.74
2023-01-20T23:50:39.948Z,64.95
2023-01-20T23:53:12.928Z,64.75
2023-01-20T23:55:45.814Z,65.02
2023-01-20T23:58:20.079Z,64.95
